sensor_id;sensor_type;location;lat;lon;timestamp;pressure;altitude;pressure_sealevel;temperature;humidity
11343;BME280;5726;42.160;24.746;2023-04-03T00:02:09;98861.03;;;15.56;43.63
11343;BME280;5726;42.160;24.746;2023-04-03T00:04:34;98850.13;;;15.64;43.72
11343;BME280;5726;42.160;24.746;2023-04-03T00:07:00;98859.81;;;15.53;43.95
11343;BME280;5726;42.160;24.746;2023-04-03T00:09:25;98862.03;;;15.51;44.46
11343;BME280;5726;42.160;24.746;2023-04-03T00:11:51;98854.06;;;15.55;44.29
11343;BME280;5726;42.160;24.746;2023-04-03T00:14:16;98861.03;;;15.56;44.16
11343;BME280;5726;42.160;24.746;2023-04-03T00:16:42;98863.56;;;15.84;43.68
11343;BME280;5726;42.160;24.746;2023-04-03T00:19:08;98861.72;;;15.77;43.97
11343;BME280;5726;42.160;24.746;2023-04-03T00:21:33;98867.25;;;15.68;43.74
11343;BME280;5726;42.160;24.746;2023-04-03T00:23:59;98871.78;;;15.32;44.72
11343;BME280;5726;42.160;24.746;2023-04-03T00:26:25;98865.97;;;15.42;44.83
11343;BME280;5726;42.160;24.746;2023-04-03T00:28:50;98856.63;;;15.51;44.75
11343;BME280;5726;42.160;24.746;2023-04-03T00:31:16;98863.41;;;15.57;44.40
11343;BME280;5726;42.160;24.746;2023-04-03T00:33:41;98868.72;;;15.66;44.06
11343;BME280;5726;42.160;24.746;2023-04-03T00:36:10;98861.53;;;15.70;43.97
11343;BME280;5726;42.160;24.746;2023-04-03T00:38:37;98864.59;;;15.36;44.68
11343;BME280;5726;42.160;24.746;2023-04-03T00:41:02;98864.41;;;15.65;44.31
11343;BME280;5726;42.160;24.746;2023-04-03T00:43:28;98866.19;;;15.37;44.76
11343;BME280;5726;42.160;24.746;2023-04-03T00:45:56;98876.09;;;15.33;44.72
11343;BME280;5726;42.160;24.746;2023-04-03T00:48:31;98869.34;;;15.39;44.51
11343;BME280;5726;42.160;24.746;2023-04-03T00:50:58;98870.03;;;15.48;44.41
11343;BME280;5726;42.160;24.746;2023-04-03T00:54:08;98864.28;;;15.49;44.42
11343;BME280;5726;42.160;24.746;2023-04-03T00:56:17;98861.69;;;15.53;44.27
11343;BME280;5726;42.160;24.746;2023-04-03T00:58:57;98864.41;;;15.53;44.62
11343;BME280;5726;42.160;24.746;2023-04-03T01:01:26;98864.22;;;15.58;44.21
11343;BME280;5726;42.160;24.746;2023-04-03T01:03:52;98866.75;;;15.42;44.90
11343;BME280;5726;42.160;24.746;2023-04-03T01:06:23;98873.63;;;15.40;45.14
11343;BME280;5726;42.160;24.746;2023-04-03T01:08:51;98857.44;;;15.40;45.17
11343;BME280;5726;42.160;24.746;2023-04-03T01:11:17;98863.69;;;15.20;45.78
11343;BME280;5726;42.160;24.746;2023-04-03T01:13:43;98856.91;;;15.26;45.16
11343;BME280;5726;42.160;24.746;2023-04-03T01:16:08;98858.41;;;15.24;45.17
11343;BME280;5726;42.160;24.746;2023-04-03T01:18:36;98858.72;;;15.22;45.19
11343;BME280;5726;42.160;24.746;2023-04-03T01:21:24;98857.47;;;15.20;45.75
11343;BME280;5726;42.160;24.746;2023-04-03T01:24:22;98864.47;;;15.21;45.35
11343;BME280;5726;42.160;24.746;2023-04-03T01:26:44;98864.59;;;14.72;46.72
11343;BME280;5726;42.160;24.746;2023-04-03T01:29:10;98862.03;;;14.55;47.39
11343;BME280;5726;42.160;24.746;2023-04-03T01:34:10;98857.91;;;14.89;46.46
11343;BME280;5726;42.160;24.746;2023-04-03T01:36:36;98850.50;;;14.86;46.62
11343;BME280;5726;42.160;24.746;2023-04-03T01:39:02;98858.41;;;15.03;46.18
11343;BME280;5726;42.160;24.746;2023-04-03T01:41:28;98855.97;;;15.10;45.95
11343;BME280;5726;42.160;24.746;2023-04-03T01:43:54;98853.94;;;15.07;46.23
11343;BME280;5726;42.160;24.746;2023-04-03T01:46:20;98860.84;;;14.84;46.72
11343;BME280;5726;42.160;24.746;2023-04-03T01:48:46;98864.09;;;14.90;46.73
11343;BME280;5726;42.160;24.746;2023-04-03T01:51:12;98868.09;;;15.04;46.33
11343;BME280;5726;42.160;24.746;2023-04-03T01:53:37;98864.47;;;15.00;45.92
11343;BME280;5726;42.160;24.746;2023-04-03T01:56:03;98872.69;;;14.72;47.18
11343;BME280;5726;42.160;24.746;2023-04-03T01:58:28;98870.69;;;14.81;46.61
11343;BME280;5726;42.160;24.746;2023-04-03T02:00:54;98875.69;;;14.90;46.47
11343;BME280;5726;42.160;24.746;2023-04-03T02:03:19;98880.72;;;14.60;47.34
11343;BME280;5726;42.160;24.746;2023-04-03T02:05:45;98884.53;;;14.59;47.58
11343;BME280;5726;42.160;24.746;2023-04-03T02:08:10;98881.00;;;14.67;46.73
11343;BME280;5726;42.160;24.746;2023-04-03T02:10:36;98879.19;;;14.30;47.88
11343;BME280;5726;42.160;24.746;2023-04-03T02:13:02;98882.81;;;14.05;48.72
11343;BME280;5726;42.160;24.746;2023-04-03T02:15:27;98873.44;;;14.11;48.20
11343;BME280;5726;42.160;24.746;2023-04-03T02:17:52;98871.41;;;14.00;48.90
11343;BME280;5726;42.160;24.746;2023-04-03T02:20:18;98865.53;;;14.06;48.80
11343;BME280;5726;42.160;24.746;2023-04-03T02:22:44;98871.78;;;14.19;48.49
11343;BME280;5726;42.160;24.746;2023-04-03T02:25:09;98874.00;;;14.25;48.15
11343;BME280;5726;42.160;24.746;2023-04-03T02:27:35;98867.47;;;14.26;48.13
11343;BME280;5726;42.160;24.746;2023-04-03T02:30:01;98869.66;;;14.33;47.84
11343;BME280;5726;42.160;24.746;2023-04-03T02:32:27;98868.53;;;14.54;47.40
11343;BME280;5726;42.160;24.746;2023-04-03T02:34:52;98873.72;;;14.59;46.57
11343;BME280;5726;42.160;24.746;2023-04-03T02:37:17;98874.16;;;14.49;46.15
11343;BME280;5726;42.160;24.746;2023-04-03T02:39:43;98879.00;;;14.55;46.29
11343;BME280;5726;42.160;24.746;2023-04-03T02:42:08;98879.97;;;14.31;47.32
11343;BME280;5726;42.160;24.746;2023-04-03T02:44:34;98882.09;;;14.25;47.68
11343;BME280;5726;42.160;24.746;2023-04-03T02:47:00;98873.13;;;14.33;47.66
11343;BME280;5726;42.160;24.746;2023-04-03T02:49:26;98870.91;;;14.35;48.31
11343;BME280;5726;42.160;24.746;2023-04-03T02:51:51;98866.09;;;14.40;47.71
11343;BME280;5726;42.160;24.746;2023-04-03T02:54:17;98866.22;;;14.44;47.83
11343;BME280;5726;42.160;24.746;2023-04-03T02:56:42;98869.84;;;14.48;47.83
11343;BME280;5726;42.160;24.746;2023-04-03T02:59:07;98861.25;;;14.34;48.19
11343;BME280;5726;42.160;24.746;2023-04-03T03:01:33;98868.03;;;14.40;47.75
11343;BME280;5726;42.160;24.746;2023-04-03T03:03:59;98871.38;;;14.37;47.53
11343;BME280;5726;42.160;24.746;2023-04-03T03:06:25;98866.22;;;14.44;47.23
11343;BME280;5726;42.160;24.746;2023-04-03T03:08:51;98858.13;;;14.44;47.34
11343;BME280;5726;42.160;24.746;2023-04-03T03:11:17;98856.66;;;14.55;47.21
11343;BME280;5726;42.160;24.746;2023-04-03T03:13:43;98845.47;;;14.44;46.80
11343;BME280;5726;42.160;24.746;2023-04-03T03:16:08;98850.09;;;14.15;47.16
11343;BME280;5726;42.160;24.746;2023-04-03T03:18:34;98848.66;;;13.52;49.52
11343;BME280;5726;42.160;24.746;2023-04-03T03:21:01;98847.88;;;13.51;49.76
11343;BME280;5726;42.160;24.746;2023-04-03T03:23:28;98849.34;;;13.40;50.25
11343;BME280;5726;42.160;24.746;2023-04-03T03:25:56;98845.22;;;13.43;50.48
11343;BME280;5726;42.160;24.746;2023-04-03T03:28:22;98833.19;;;13.40;50.20
11343;BME280;5726;42.160;24.746;2023-04-03T03:30:47;98825.81;;;13.58;49.29
11343;BME280;5726;42.160;24.746;2023-04-03T03:33:13;98832.16;;;13.62;49.83
11343;BME280;5726;42.160;24.746;2023-04-03T03:35:38;98835.03;;;13.57;49.88
11343;BME280;5726;42.160;24.746;2023-04-03T03:38:04;98835.69;;;13.54;49.98
11343;BME280;5726;42.160;24.746;2023-04-03T03:40:29;98831.34;;;13.24;51.09
11343;BME280;5726;42.160;24.746;2023-04-03T03:42:55;98825.22;;;13.15;51.53
11343;BME280;5726;42.160;24.746;2023-04-03T03:45:20;98835.19;;;13.06;52.17
11343;BME280;5726;42.160;24.746;2023-04-03T03:47:46;98826.56;;;13.30;51.38
11343;BME280;5726;42.160;24.746;2023-04-03T03:50:11;98839.63;;;13.02;52.18
11343;BME280;5726;42.160;24.746;2023-04-03T03:52:36;98849.31;;;12.95;52.83
11343;BME280;5726;42.160;24.746;2023-04-03T03:55:02;98848.97;;;13.05;52.48
11343;BME280;5726;42.160;24.746;2023-04-03T03:57:27;98838.03;;;13.18;52.00
11343;BME280;5726;42.160;24.746;2023-04-03T03:59:54;98847.75;;;13.39;51.30
11343;BME280;5726;42.160;24.746;2023-04-03T04:02:19;98846.56;;;13.20;51.87
11343;BME280;5726;42.160;24.746;2023-04-03T04:04:45;98855.25;;;13.26;51.70
11343;BME280;5726;42.160;24.746;2023-04-03T04:07:11;98865.41;;;13.20;51.47
11343;BME280;5726;42.160;24.746;2023-04-03T04:09:36;98876.63;;;13.22;51.86
11343;BME280;5726;42.160;24.746;2023-04-03T04:12:02;98870.72;;;13.37;51.37
11343;BME280;5726;42.160;24.746;2023-04-03T04:14:27;98877.75;;;13.13;52.29
11343;BME280;5726;42.160;24.746;2023-04-03T04:16:53;98874.44;;;13.24;51.67
11343;BME280;5726;42.160;24.746;2023-04-03T04:19:18;98881.47;;;13.45;54.66
11343;BME280;5726;42.160;24.746;2023-04-03T04:21:44;98879.03;;;13.61;50.88
11343;BME280;5726;42.160;24.746;2023-04-03T04:24:09;98887.41;;;13.76;50.71
11343;BME280;5726;42.160;24.746;2023-04-03T04:26:35;98894.50;;;14.18;65.53
11343;BME280;5726;42.160;24.746;2023-04-03T04:29:00;98900.03;;;14.21;53.82
11343;BME280;5726;42.160;24.746;2023-04-03T04:31:26;98900.31;;;14.28;49.78
11343;BME280;5726;42.160;24.746;2023-04-03T04:33:52;98896.38;;;14.17;49.41
11343;BME280;5726;42.160;24.746;2023-04-03T04:36:17;98902.19;;;14.07;49.45
11343;BME280;5726;42.160;24.746;2023-04-03T04:38:43;98899.72;;;14.14;49.81
11343;BME280;5726;42.160;24.746;2023-04-03T04:41:09;98898.81;;;14.39;48.88
11343;BME280;5726;42.160;24.746;2023-04-03T04:43:35;98907.50;;;14.65;48.48
11343;BME280;5726;42.160;24.746;2023-04-03T04:46:05;98906.78;;;14.96;47.68
11343;BME280;5726;42.160;24.746;2023-04-03T04:48:31;98897.78;;;15.04;47.03
11343;BME280;5726;42.160;24.746;2023-04-03T04:50:56;98896.00;;;15.29;46.48
11343;BME280;5726;42.160;24.746;2023-04-03T04:53:22;98899.13;;;15.30;45.18
11343;BME280;5726;42.160;24.746;2023-04-03T04:55:47;98909.09;;;14.66;48.02
11343;BME280;5726;42.160;24.746;2023-04-03T04:58:13;98910.06;;;14.82;49.97
11343;BME280;5726;42.160;24.746;2023-04-03T05:00:39;98912.16;;;14.96;49.21
11343;BME280;5726;42.160;24.746;2023-04-03T05:03:04;98925.72;;;15.08;53.68
11343;BME280;5726;42.160;24.746;2023-04-03T05:05:30;98922.41;;;15.23;52.73
11343;BME280;5726;42.160;24.746;2023-04-03T05:07:55;98916.22;;;15.23;48.79
11343;BME280;5726;42.160;24.746;2023-04-03T05:10:21;98925.31;;;15.18;50.76
11343;BME280;5726;42.160;24.746;2023-04-03T05:12:46;98930.13;;;15.13;48.22
11343;BME280;5726;42.160;24.746;2023-04-03T05:15:12;98917.25;;;14.78;48.96
11343;BME280;5726;42.160;24.746;2023-04-03T05:17:37;98913.06;;;15.00;50.21
11343;BME280;5726;42.160;24.746;2023-04-03T05:20:03;98925.72;;;15.08;48.29
11343;BME280;5726;42.160;24.746;2023-04-03T05:22:30;98917.34;;;15.01;49.53
11343;BME280;5726;42.160;24.746;2023-04-03T05:24:55;98926.00;;;14.75;49.13
11343;BME280;5726;42.160;24.746;2023-04-03T05:27:21;98939.38;;;14.71;49.34
11343;BME280;5726;42.160;24.746;2023-04-03T05:29:48;98942.63;;;14.77;49.50
11343;BME280;5726;42.160;24.746;2023-04-03T05:32:14;98937.84;;;15.02;48.12
11343;BME280;5726;42.160;24.746;2023-04-03T05:34:39;98948.66;;;15.02;48.41
11343;BME280;5726;42.160;24.746;2023-04-03T05:37:04;98943.63;;;14.72;49.49
11343;BME280;5726;42.160;24.746;2023-04-03T05:39:30;98938.75;;;15.06;48.63
11343;BME280;5726;42.160;24.746;2023-04-03T05:41:56;98933.56;;;15.01;47.79
11343;BME280;5726;42.160;24.746;2023-04-03T05:44:22;98943.31;;;15.14;48.52
11343;BME280;5726;42.160;24.746;2023-04-03T05:46:47;98934.13;;;15.27;47.70
11343;BME280;5726;42.160;24.746;2023-04-03T05:49:13;98943.22;;;15.23;47.81
11343;BME280;5726;42.160;24.746;2023-04-03T05:51:39;98956.66;;;15.31;48.10
11343;BME280;5726;42.160;24.746;2023-04-03T05:54:19;98949.78;;;15.33;47.97
11343;BME280;5726;42.160;24.746;2023-04-03T05:56:49;98953.88;;;15.39;48.01
11343;BME280;5726;42.160;24.746;2023-04-03T05:59:15;98958.97;;;15.53;47.51
11343;BME280;5726;42.160;24.746;2023-04-03T06:01:41;98950.38;;;15.71;47.35
11343;BME280;5726;42.160;24.746;2023-04-03T06:04:07;98952.75;;;15.84;46.78
11343;BME280;5726;42.160;24.746;2023-04-03T06:06:47;98950.91;;;15.65;46.43
11343;BME280;5726;42.160;24.746;2023-04-03T06:09:14;98950.78;;;15.61;46.51
11343;BME280;5726;42.160;24.746;2023-04-03T06:11:43;98951.75;;;15.45;46.52
11343;BME280;5726;42.160;24.746;2023-04-03T06:14:10;98952.72;;;15.08;48.37
11343;BME280;5726;42.160;24.746;2023-04-03T06:16:36;98964.75;;;15.11;50.54
11343;BME280;5726;42.160;24.746;2023-04-03T06:19:03;98962.91;;;15.03;49.27
11343;BME280;5726;42.160;24.746;2023-04-03T06:21:29;98962.72;;;15.28;47.98
11343;BME280;5726;42.160;24.746;2023-04-03T06:23:55;98967.53;;;15.02;48.10
11343;BME280;5726;42.160;24.746;2023-04-03T06:26:22;98959.69;;;15.09;49.30
11343;BME280;5726;42.160;24.746;2023-04-03T06:28:50;98966.66;;;15.19;48.45
11343;BME280;5726;42.160;24.746;2023-04-03T06:31:16;98953.16;;;15.10;48.23
11343;BME280;5726;42.160;24.746;2023-04-03T06:33:42;98941.81;;;14.84;52.10
11343;BME280;5726;42.160;24.746;2023-04-03T06:36:09;98946.59;;;15.20;50.47
11343;BME280;5726;42.160;24.746;2023-04-03T06:38:35;98939.06;;;15.57;49.42
11343;BME280;5726;42.160;24.746;2023-04-03T06:41:00;98945.53;;;15.77;47.48
11343;BME280;5726;42.160;24.746;2023-04-03T06:43:26;98953.38;;;15.26;47.51
11343;BME280;5726;42.160;24.746;2023-04-03T06:45:51;98959.16;;;15.36;47.31
11343;BME280;5726;42.160;24.746;2023-04-03T06:48:17;98967.91;;;15.33;47.34
11343;BME280;5726;42.160;24.746;2023-04-03T06:50:44;98969.19;;;15.35;47.70
11343;BME280;5726;42.160;24.746;2023-04-03T06:53:10;98979.56;;;15.45;48.10
11343;BME280;5726;42.160;24.746;2023-04-03T06:55:35;98969.84;;;15.32;48.98
11343;BME280;5726;42.160;24.746;2023-04-03T06:58:02;98971.00;;;15.23;48.45
11343;BME280;5726;42.160;24.746;2023-04-03T07:00:28;98960.06;;;15.40;49.69
11343;BME280;5726;42.160;24.746;2023-04-03T07:02:54;98962.84;;;15.64;47.49
11343;BME280;5726;42.160;24.746;2023-04-03T07:05:22;98970.75;;;15.80;47.61
11343;BME280;5726;42.160;24.746;2023-04-03T07:07:48;98967.53;;;15.43;47.73
11343;BME280;5726;42.160;24.746;2023-04-03T07:10:15;98975.19;;;15.53;48.66
11343;BME280;5726;42.160;24.746;2023-04-03T07:12:41;98962.81;;;15.52;48.03
11343;BME280;5726;42.160;24.746;2023-04-03T07:15:07;98965.81;;;15.82;48.27
11343;BME280;5726;42.160;24.746;2023-04-03T07:17:34;98974.97;;;16.02;47.25
11343;BME280;5726;42.160;24.746;2023-04-03T07:20:01;98972.84;;;16.19;46.37
11343;BME280;5726;42.160;24.746;2023-04-03T07:22:27;98969.94;;;16.24;45.91
11343;BME280;5726;42.160;24.746;2023-04-03T07:24:52;98967.75;;;16.06;47.71
11343;BME280;5726;42.160;24.746;2023-04-03T07:27:18;98959.69;;;16.41;46.58
11343;BME280;5726;42.160;24.746;2023-04-03T07:29:43;98960.38;;;16.27;46.39
11343;BME280;5726;42.160;24.746;2023-04-03T07:32:10;98964.75;;;16.31;48.13
11343;BME280;5726;42.160;24.746;2023-04-03T07:34:36;98958.91;;;16.53;50.49
11343;BME280;5726;42.160;24.746;2023-04-03T07:37:02;98962.66;;;16.87;47.95
11343;BME280;5726;42.160;24.746;2023-04-03T07:39:28;98965.81;;;16.89;44.85
11343;BME280;5726;42.160;24.746;2023-04-03T07:41:54;98956.44;;;16.99;43.67
11343;BME280;5726;42.160;24.746;2023-04-03T07:44:23;98957.28;;;16.64;45.39
11343;BME280;5726;42.160;24.746;2023-04-03T07:46:48;98957.97;;;16.61;44.56
11343;BME280;5726;42.160;24.746;2023-04-03T07:49:16;98957.44;;;16.31;46.34
11343;BME280;5726;42.160;24.746;2023-04-03T07:51:43;98957.56;;;16.47;46.57
11343;BME280;5726;42.160;24.746;2023-04-03T07:54:09;98946.84;;;16.89;44.85
11343;BME280;5726;42.160;24.746;2023-04-03T07:56:34;98952.75;;;16.91;44.41
11343;BME280;5726;42.160;24.746;2023-04-03T07:59:00;98950.25;;;16.86;43.75
11343;BME280;5726;42.160;24.746;2023-04-03T08:01:25;98945.94;;;16.97;44.12
11343;BME280;5726;42.160;24.746;2023-04-03T08:03:51;98938.63;;;16.86;45.02
11343;BME280;5726;42.160;24.746;2023-04-03T08:06:16;98945.44;;;17.07;43.94
11343;BME280;5726;42.160;24.746;2023-04-03T08:08:42;98942.09;;;16.98;43.34
11343;BME280;5726;42.160;24.746;2023-04-03T08:11:09;98938.66;;;17.13;42.81
11343;BME280;5726;42.160;24.746;2023-04-03T08:13:34;98937.72;;;17.33;41.78
11343;BME280;5726;42.160;24.746;2023-04-03T08:16:26;98936.63;;;17.22;42.22
11343;BME280;5726;42.160;24.746;2023-04-03T08:18:52;98940.22;;;17.26;41.69
11343;BME280;5726;42.160;24.746;2023-04-03T08:21:18;98936.16;;;17.20;42.14
11343;BME280;5726;42.160;24.746;2023-04-03T08:23:43;98937.19;;;17.43;41.34
11343;BME280;5726;42.160;24.746;2023-04-03T08:26:11;98930.59;;;17.56;40.41
11343;BME280;5726;42.160;24.746;2023-04-03T08:28:37;98928.03;;;17.47;42.06
11343;BME280;5726;42.160;24.746;2023-04-03T08:31:05;98927.25;;;17.47;40.80
11343;BME280;5726;42.160;24.746;2023-04-03T08:33:31;98928.94;;;17.24;41.46
11343;BME280;5726;42.160;24.746;2023-04-03T08:35:57;98925.84;;;16.98;41.71
11343;BME280;5726;42.160;24.746;2023-04-03T08:38:23;98927.81;;;17.13;41.40
11343;BME280;5726;42.160;24.746;2023-04-03T08:41:00;98915.84;;;17.14;41.41
11343;BME280;5726;42.160;24.746;2023-04-03T08:45:57;98901.03;;;16.96;42.62
11343;BME280;5726;42.160;24.746;2023-04-03T08:48:39;98899.25;;;16.88;42.61
11343;BME280;5726;42.160;24.746;2023-04-03T08:51:13;98893.19;;;16.79;43.47
11343;BME280;5726;42.160;24.746;2023-04-03T08:53:54;98888.44;;;16.88;43.63
11343;BME280;5726;42.160;24.746;2023-04-03T08:56:22;98884.81;;;16.84;44.65
11343;BME280;5726;42.160;24.746;2023-04-03T08:58:57;98885.22;;;16.71;44.61
11343;BME280;5726;42.160;24.746;2023-04-03T09:01:43;98882.50;;;16.71;44.76
11343;BME280;5726;42.160;24.746;2023-04-03T09:04:14;98886.94;;;16.52;44.82
11343;BME280;5726;42.160;24.746;2023-04-03T09:06:43;98886.38;;;16.46;45.47
11343;BME280;5726;42.160;24.746;2023-04-03T09:12:19;98890.78;;;16.39;45.77
11343;BME280;5726;42.160;24.746;2023-04-03T09:18:00;98881.81;;;16.35;47.14
11343;BME280;5726;42.160;24.746;2023-04-03T09:22:59;98882.91;;;16.34;47.70
11343;BME280;5726;42.160;24.746;2023-04-03T09:25:32;98884.19;;;16.25;48.42
11343;BME280;5726;42.160;24.746;2023-04-03T09:28:00;98885.53;;;16.30;48.51
11343;BME280;5726;42.160;24.746;2023-04-03T09:30:27;98878.09;;;16.27;47.55
11343;BME280;5726;42.160;24.746;2023-04-03T09:32:56;98875.13;;;16.09;47.24
11343;BME280;5726;42.160;24.746;2023-04-03T09:35:27;98883.38;;;16.24;46.11
11343;BME280;5726;42.160;24.746;2023-04-03T09:38:15;98871.88;;;16.03;45.60
11343;BME280;5726;42.160;24.746;2023-04-03T09:40:42;98865.69;;;16.03;46.38
11343;BME280;5726;42.160;24.746;2023-04-03T09:45:44;98870.31;;;15.90;46.07
11343;BME280;5726;42.160;24.746;2023-04-03T09:51:00;98859.47;;;15.55;47.24
11343;BME280;5726;42.160;24.746;2023-04-03T09:55:59;98844.63;;;15.73;47.57
11343;BME280;5726;42.160;24.746;2023-04-03T09:58:27;98836.72;;;15.68;48.11
11343;BME280;5726;42.160;24.746;2023-04-03T10:00:59;98858.00;;;15.93;47.14
11343;BME280;5726;42.160;24.746;2023-04-03T10:03:30;98855.44;;;15.84;48.39
11343;BME280;5726;42.160;24.746;2023-04-03T10:05:56;98867.59;;;15.67;48.22
11343;BME280;5726;42.160;24.746;2023-04-03T10:08:31;98858.34;;;15.68;49.59
11343;BME280;5726;42.160;24.746;2023-04-03T10:11:13;98854.88;;;15.91;49.92
11343;BME280;5726;42.160;24.746;2023-04-03T10:14:02;98862.53;;;15.77;51.33
11343;BME280;5726;42.160;24.746;2023-04-03T10:16:38;98847.34;;;15.84;50.70
11343;BME280;5726;42.160;24.746;2023-04-03T10:19:30;98845.63;;;15.56;52.98
11343;BME280;5726;42.160;24.746;2023-04-03T10:22:00;98849.47;;;15.67;53.05
11343;BME280;5726;42.160;24.746;2023-04-03T10:24:51;98856.78;;;15.67;55.11
11343;BME280;5726;42.160;24.746;2023-04-03T10:27:32;98857.47;;;15.64;55.27
11343;BME280;5726;42.160;24.746;2023-04-03T10:32:57;98848.22;;;15.65;54.78
11343;BME280;5726;42.160;24.746;2023-04-03T10:46:51;98858.69;;;16.02;55.90
11343;BME280;5726;42.160;24.746;2023-04-03T10:51:48;98868.81;;;16.05;56.12
11343;BME280;5726;42.160;24.746;2023-04-03T10:54:26;98873.78;;;15.91;56.86
11343;BME280;5726;42.160;24.746;2023-04-03T10:57:08;98872.88;;;15.63;59.70
11343;BME280;5726;42.160;24.746;2023-04-03T10:59:53;98877.50;;;15.86;60.83
11343;BME280;5726;42.160;24.746;2023-04-03T11:02:33;98875.59;;;15.99;60.00
11343;BME280;5726;42.160;24.746;2023-04-03T11:05:18;98873.44;;;15.69;61.84
11343;BME280;5726;42.160;24.746;2023-04-03T11:07:49;98876.84;;;15.89;61.92
11343;BME280;5726;42.160;24.746;2023-04-03T11:10:42;98873.88;;;15.71;62.39
11343;BME280;5726;42.160;24.746;2023-04-03T11:13:14;98879.28;;;15.71;63.18
11343;BME280;5726;42.160;24.746;2023-04-03T11:15:43;98879.53;;;15.77;64.34
11343;BME280;5726;42.160;24.746;2023-04-03T11:18:17;98877.94;;;15.77;65.29
11343;BME280;5726;42.160;24.746;2023-04-03T11:21:07;98873.13;;;15.82;65.40
11343;BME280;5726;42.160;24.746;2023-04-03T11:23:39;98871.44;;;15.89;67.87
11343;BME280;5726;42.160;24.746;2023-04-03T11:26:11;98858.91;;;15.85;68.69
11343;BME280;5726;42.160;24.746;2023-04-03T11:28:38;98864.97;;;15.58;71.35
11343;BME280;5726;42.160;24.746;2023-04-03T11:34:09;98862.50;;;15.53;74.95
11343;BME280;5726;42.160;24.746;2023-04-03T11:36:49;98855.94;;;15.42;76.69
11343;BME280;5726;42.160;24.746;2023-04-03T11:39:29;98844.38;;;15.54;76.17
11343;BME280;5726;42.160;24.746;2023-04-03T11:42:34;98849.19;;;15.48;75.72
11343;BME280;5726;42.160;24.746;2023-04-03T11:47:55;98844.81;;;15.68;76.69
11343;BME280;5726;42.160;24.746;2023-04-03T11:53:01;98845.41;;;15.61;76.87
11343;BME280;5726;42.160;24.746;2023-04-03T12:13:35;98819.34;;;15.33;84.00
11343;BME280;5726;42.160;24.746;2023-04-03T12:16:02;98821.63;;;15.31;84.09
11343;BME280;5726;42.160;24.746;2023-04-03T12:22:04;98812.63;;;15.51;86.01
11343;BME280;5726;42.160;24.746;2023-04-03T12:26:46;98810.81;;;15.31;91.00
11343;BME280;5726;42.160;24.746;2023-04-03T12:40:38;98784.69;;;15.59;89.72
11343;BME280;5726;42.160;24.746;2023-04-03T12:46:22;98788.41;;;14.86;94.76
11343;BME280;5726;42.160;24.746;2023-04-03T12:48:49;98790.00;;;14.87;93.92
11343;BME280;5726;42.160;24.746;2023-04-03T12:51:22;98790.44;;;14.89;93.98
11343;BME280;5726;42.160;24.746;2023-04-03T12:53:57;98781.44;;;14.85;94.60
11343;BME280;5726;42.160;24.746;2023-04-03T12:56:30;98779.56;;;14.98;95.06
11343;BME280;5726;42.160;24.746;2023-04-03T12:59:22;98786.50;;;15.19;93.75
11343;BME280;5726;42.160;24.746;2023-04-03T13:01:58;98785.53;;;15.15;94.43
11343;BME280;5726;42.160;24.746;2023-04-03T13:04:25;98776.56;;;15.23;93.81
11343;BME280;5726;42.160;24.746;2023-04-03T13:06:51;98774.75;;;15.15;95.51
11343;BME280;5726;42.160;24.746;2023-04-03T13:11:48;98775.34;;;15.21;100.00
11343;BME280;5726;42.160;24.746;2023-04-03T13:14:17;98767.13;;;15.41;100.00
11343;BME280;5726;42.160;24.746;2023-04-03T13:16:58;98760.25;;;15.20;99.48
11343;BME280;5726;42.160;24.746;2023-04-03T13:19:26;98758.50;;;14.91;100.00
11343;BME280;5726;42.160;24.746;2023-04-03T13:24:23;98752.88;;;14.84;100.00
11343;BME280;5726;42.160;24.746;2023-04-03T13:26:51;98754.38;;;14.62;100.00
11343;BME280;5726;42.160;24.746;2023-04-03T13:29:29;98749.78;;;14.62;100.00
11343;BME280;5726;42.160;24.746;2023-04-03T13:31:56;98753.38;;;14.34;100.00
11343;BME280;5726;42.160;24.746;2023-04-03T13:34:24;98750.88;;;14.29;100.00
11343;BME280;5726;42.160;24.746;2023-04-03T13:41:46;98739.41;;;14.32;100.00
11343;BME280;5726;42.160;24.746;2023-04-03T13:44:32;98733.03;;;14.36;100.00
11343;BME280;5726;42.160;24.746;2023-04-03T13:49:39;98719.97;;;14.06;100.00
11343;BME280;5726;42.160;24.746;2023-04-03T13:52:33;98711.56;;;14.08;100.00
11343;BME280;5726;42.160;24.746;2023-04-03T14:01:00;98701.88;;;14.27;100.00
11343;BME280;5726;42.160;24.746;2023-04-03T14:03:36;98699.06;;;14.03;100.00
11343;BME280;5726;42.160;24.746;2023-04-03T14:06:08;98686.19;;;13.88;100.00
11343;BME280;5726;42.160;24.746;2023-04-03T14:08:35;98682.63;;;13.96;100.00
11343;BME280;5726;42.160;24.746;2023-04-03T14:11:01;98679.22;;;14.08;100.00
11343;BME280;5726;42.160;24.746;2023-04-03T14:13:29;98679.56;;;14.06;100.00
11343;BME280;5726;42.160;24.746;2023-04-03T14:15:55;98680.78;;;13.88;100.00
11343;BME280;5726;42.160;24.746;2023-04-03T14:18:20;98679.53;;;13.86;100.00
11343;BME280;5726;42.160;24.746;2023-04-03T14:20:47;98675.34;;;13.97;100.00
11343;BME280;5726;42.160;24.746;2023-04-03T14:23:13;98667.00;;;14.10;100.00
11343;BME280;5726;42.160;24.746;2023-04-03T14:25:39;98677.13;;;14.13;100.00
11343;BME280;5726;42.160;24.746;2023-04-03T14:28:15;98675.13;;;14.02;100.00
11343;BME280;5726;42.160;24.746;2023-04-03T14:30:41;98676.28;;;14.33;100.00
11343;BME280;5726;42.160;24.746;2023-04-03T14:33:14;98675.00;;;14.51;100.00
11343;BME280;5726;42.160;24.746;2023-04-03T14:35:40;98677.81;;;14.66;100.00
11343;BME280;5726;42.160;24.746;2023-04-03T14:38:25;98679.94;;;14.49;100.00
11343;BME280;5726;42.160;24.746;2023-04-03T14:40:51;98674.84;;;14.35;100.00
11343;BME280;5726;42.160;24.746;2023-04-03T14:43:17;98675.19;;;14.34;100.00
11343;BME280;5726;42.160;24.746;2023-04-03T14:45:43;98675.19;;;14.34;100.00
11343;BME280;5726;42.160;24.746;2023-04-03T14:48:21;98670.34;;;14.39;100.00
11343;BME280;5726;42.160;24.746;2023-04-03T14:50:50;98669.22;;;14.40;100.00
11343;BME280;5726;42.160;24.746;2023-04-03T14:53:17;98658.53;;;14.32;100.00